Time;durP1;ratioP1;P1;durP2;ratioP2;P2;SDS_P1;SDS_P2;PMS_P1;PMS_P2;Temp;Humidity;BMP_temperature;BMP_pressure;BME280_temperature;BME280_humidity;BME280_pressure;Samples;Min_cycle;Max_cycle;Signal;HPM_P1;HPM_P2
2024/01/31 00:01:00;;;;;;;7.05;5.20;;;8.60;99.90;;;;;;5013873;28;20029;-80
2024/01/31 00:03:26;;;;;;;10.90;6.38;;;8.60;99.90;;;;;;5016909;28;20044;-80
2024/01/31 00:05:51;;;;;;;10.07;5.93;;;8.60;99.90;;;;;;5013501;28;20038;-78
2024/01/31 00:08:17;;;;;;;8.88;5.85;;;8.60;99.90;;;;;;5017970;28;20025;-79
2024/01/31 00:10:42;;;;;;;7.18;5.78;;;8.60;99.90;;;;;;5020150;28;20360;-78
2024/01/31 00:13:09;;;;;;;8.80;5.63;;;8.60;99.90;;;;;;5001370;28;20478;-81
2024/01/31 00:15:34;;;;;;;8.95;5.88;;;8.60;99.90;;;;;;5018275;28;20040;-79
2024/01/31 00:18:00;;;;;;;9.48;5.68;;;8.60;99.90;;;;;;5013872;28;20407;-78
2024/01/31 00:20:26;;;;;;;7.75;5.47;;;8.50;99.90;;;;;;5022641;28;20076;-81
2024/01/31 00:22:51;;;;;;;5.13;4.32;;;8.50;99.90;;;;;;5018875;28;20022;-80
2024/01/31 00:25:17;;;;;;;6.80;4.80;;;8.50;99.90;;;;;;5017510;28;20405;-79
2024/01/31 00:27:42;;;;;;;7.05;4.35;;;8.50;99.90;;;;;;5018190;28;20032;-78
2024/01/31 00:30:12;;;;;;;11.93;4.10;;;8.50;99.90;;;;;;5017743;28;20040;-82
2024/01/31 00:32:37;;;;;;;7.30;3.78;;;8.60;99.90;;;;;;5013591;28;20208;-80
2024/01/31 00:35:03;;;;;;;5.40;3.75;;;8.50;99.90;;;;;;4997678;28;20053;-80
2024/01/31 00:37:29;;;;;;;6.05;3.75;;;8.50;99.90;;;;;;5018179;28;20021;-81
2024/01/31 00:39:54;;;;;;;5.20;3.67;;;8.50;99.90;;;;;;4992758;28;20030;-77
2024/01/31 00:42:20;;;;;;;5.32;3.53;;;8.50;99.90;;;;;;5009850;28;20022;-79
2024/01/31 00:44:46;;;;;;;3.80;3.17;;;8.50;99.90;;;;;;5015512;28;20032;-79
2024/01/31 00:47:12;;;;;;;5.90;3.28;;;8.50;99.90;;;;;;5014529;28;20033;-79
2024/01/31 00:49:39;;;;;;;3.78;2.80;;;8.50;99.90;;;;;;5021330;28;20076;-79
2024/01/31 00:52:05;;;;;;;5.03;2.78;;;8.50;99.90;;;;;;5016672;28;20057;-81
2024/01/31 00:54:30;;;;;;;4.75;2.80;;;8.50;99.90;;;;;;5015717;28;20029;-83
2024/01/31 00:56:56;;;;;;;6.70;2.25;;;8.50;99.90;;;;;;5010407;28;20040;-78
2024/01/31 00:59:21;;;;;;;2.50;2.30;;;8.40;99.90;;;;;;5016575;28;20027;-82
2024/01/31 01:01:47;;;;;;;3.92;2.42;;;8.50;99.90;;;;;;5016563;28;20080;-78
2024/01/31 01:04:13;;;;;;;3.35;2.38;;;8.50;99.90;;;;;;5011204;28;20430;-79
2024/01/31 01:06:41;;;;;;;2.08;1.85;;;8.50;99.90;;;;;;5023241;28;20084;-79
2024/01/31 01:09:07;;;;;;;2.38;1.77;;;8.40;99.90;;;;;;5014793;28;20069;-78
2024/01/31 01:11:34;;;;;;;1.88;1.70;;;8.40;99.90;;;;;;5015240;28;20058;-79
2024/01/31 01:14:00;;;;;;;2.42;2.03;;;8.50;99.90;;;;;;5013092;28;20029;-78
2024/01/31 01:16:25;;;;;;;1.98;1.70;;;8.50;99.90;;;;;;5020134;28;20028;-79
2024/01/31 01:18:51;;;;;;;2.58;1.95;;;8.50;99.90;;;;;;5019786;28;20041;-79
2024/01/31 01:21:17;;;;;;;5.68;1.63;;;8.50;99.90;;;;;;5020998;28;20553;-78
2024/01/31 01:23:42;;;;;;;5.60;1.98;;;8.50;99.90;;;;;;5022457;28;20107;-79
2024/01/31 01:26:08;;;;;;;2.55;2.08;;;8.50;99.90;;;;;;5019499;28;20519;-78
2024/01/31 01:28:33;;;;;;;3.08;1.88;;;8.40;99.90;;;;;;5023536;28;20116;-78
2024/01/31 01:30:59;;;;;;;3.22;1.80;;;8.40;99.90;;;;;;5007710;28;20030;-81
2024/01/31 01:33:24;;;;;;;3.15;2.00;;;8.40;99.90;;;;;;5003645;28;20044;-79
2024/01/31 01:35:50;;;;;;;3.30;2.40;;;8.40;99.90;;;;;;5016071;28;20076;-79
2024/01/31 01:38:16;;;;;;;2.92;2.15;;;8.40;99.90;;;;;;5021560;28;20059;-78
2024/01/31 01:40:45;;;;;;;3.83;1.95;;;8.40;99.90;;;;;;5021922;28;20052;-79
2024/01/31 01:43:17;;;;;;;2.90;1.60;;;8.40;99.90;;;;;;5021304;28;20114;-80
2024/01/31 01:45:44;;;;;;;2.50;2.17;;;8.40;99.90;;;;;;5020247;28;20041;-81
2024/01/31 01:48:18;;;;;;;2.83;2.38;;;8.30;99.90;;;;;;5024605;28;20097;-80
2024/01/31 01:50:45;;;;;;;5.80;2.35;;;8.30;99.90;;;;;;5022080;28;20036;-79
2024/01/31 01:53:11;;;;;;;2.60;2.28;;;8.30;99.90;;;;;;5020352;28;20112;-79
2024/01/31 01:55:38;;;;;;;4.93;2.70;;;8.30;99.90;;;;;;5020952;28;20061;-81
2024/01/31 01:58:05;;;;;;;3.50;2.45;;;8.30;99.90;;;;;;5021700;28;20455;-78
2024/01/31 02:00:33;;;;;;;3.42;2.67;;;8.20;99.90;;;;;;5022304;28;20029;-78
2024/01/31 02:03:00;;;;;;;3.13;2.20;;;8.20;99.90;;;;;;4998071;28;20088;-78
2024/01/31 02:05:27;;;;;;;2.47;2.28;;;8.20;99.90;;;;;;5017270;28;20473;-78
2024/01/31 02:07:53;;;;;;;3.10;2.22;;;8.20;99.90;;;;;;5015824;28;20236;-78
2024/01/31 02:10:18;;;;;;;3.95;2.50;;;8.20;99.90;;;;;;5000159;28;20021;-80
2024/01/31 02:12:44;;;;;;;4.38;2.50;;;8.20;99.90;;;;;;5018116;28;20402;-79
2024/01/31 02:15:10;;;;;;;4.22;2.17;;;8.20;99.90;;;;;;5019134;28;20034;-80
2024/01/31 02:17:35;;;;;;;5.53;2.30;;;8.20;99.90;;;;;;5021017;28;20466;-79
2024/01/31 02:20:01;;;;;;;5.65;2.80;;;8.20;99.90;;;;;;5017402;28;20079;-82
2024/01/31 02:22:26;;;;;;;3.65;2.90;;;8.20;99.90;;;;;;5015376;28;20022;-79
2024/01/31 02:24:52;;;;;;;6.05;3.15;;;8.20;99.90;;;;;;5006805;28;20025;-80
2024/01/31 02:27:17;;;;;;;3.03;2.47;;;8.20;99.90;;;;;;5015205;28;20046;-79
2024/01/31 02:29:43;;;;;;;4.50;3.10;;;8.10;99.90;;;;;;4998597;28;20482;-78
2024/01/31 02:32:09;;;;;;;3.97;3.25;;;8.10;99.90;;;;;;5016748;28;20036;-79
2024/01/31 02:34:34;;;;;;;4.50;3.53;;;8.10;99.90;;;;;;5015957;28;20021;-79
2024/01/31 02:37:00;;;;;;;6.35;3.65;;;8.00;99.90;;;;;;5019854;28;20026;-79
2024/01/31 02:39:26;;;;;;;4.18;3.30;;;8.00;99.90;;;;;;5002661;28;20398;-79
2024/01/31 02:41:54;;;;;;;6.70;3.88;;;7.90;99.90;;;;;;5014034;28;20494;-79
2024/01/31 02:44:21;;;;;;;4.55;3.78;;;7.80;99.90;;;;;;5019370;28;20025;-79
2024/01/31 02:46:47;;;;;;;4.93;3.78;;;7.80;99.90;;;;;;5016560;28;20041;-80
2024/01/31 02:49:13;;;;;;;6.93;4.05;;;7.80;99.90;;;;;;5018334;28;20032;-78
2024/01/31 02:51:39;;;;;;;4.93;3.42;;;7.80;99.90;;;;;;5017005;28;20041;-79
2024/01/31 02:54:05;;;;;;;6.53;4.03;;;7.70;99.90;;;;;;5016858;28;20104;-79
2024/01/31 02:56:30;;;;;;;3.00;2.70;;;7.60;99.90;;;;;;5014020;28;20417;-79
2024/01/31 02:58:56;;;;;;;3.10;2.80;;;7.60;99.90;;;;;;5020438;28;20025;-79
2024/01/31 03:01:22;;;;;;;4.30;2.95;;;7.60;99.90;;;;;;5015400;28;20025;-79
2024/01/31 03:03:47;;;;;;;4.47;3.20;;;7.60;99.90;;;;;;5023103;28;20326;-79
2024/01/31 03:06:13;;;;;;;3.58;2.50;;;7.60;99.90;;;;;;5020386;28;20072;-79
2024/01/31 03:08:40;;;;;;;2.92;2.53;;;7.60;99.90;;;;;;5002189;28;20132;-79
2024/01/31 03:11:05;;;;;;;2.83;2.58;;;7.60;99.90;;;;;;5018803;28;20280;-79
2024/01/31 03:13:31;;;;;;;4.57;3.08;;;7.60;99.90;;;;;;5018081;28;20113;-80
2024/01/31 03:15:56;;;;;;;3.88;2.90;;;7.60;99.90;;;;;;5018388;28;20140;-79
2024/01/31 03:18:22;;;;;;;4.05;3.13;;;7.60;99.90;;;;;;5019300;28;20017;-79
2024/01/31 03:20:47;;;;;;;3.38;3.08;;;7.60;99.90;;;;;;5018104;28;20113;-79
2024/01/31 03:23:13;;;;;;;5.03;2.53;;;7.60;99.90;;;;;;5022838;28;20025;-79
2024/01/31 03:25:39;;;;;;;3.65;3.15;;;7.60;99.90;;;;;;5020361;28;20032;-78
2024/01/31 03:28:05;;;;;;;2.40;2.20;;;7.50;99.90;;;;;;5018197;28;20045;-78
2024/01/31 03:30:30;;;;;;;9.32;2.75;;;7.50;99.90;;;;;;5015762;28;20037;-79
2024/01/31 03:32:57;;;;;;;5.47;2.22;;;7.50;99.90;;;;;;5022643;28;20501;-78
2024/01/31 03:35:23;;;;;;;2.65;2.33;;;7.60;99.90;;;;;;5018632;28;20467;-78
2024/01/31 03:37:54;;;;;;;4.05;2.60;;;7.50;99.90;;;;;;5014045;28;20029;-78
2024/01/31 03:40:20;;;;;;;3.03;2.72;;;7.50;99.90;;;;;;5018080;28;20049;-79
2024/01/31 03:42:46;;;;;;;2.92;2.58;;;7.40;99.90;;;;;;5003981;28;20507;-78
2024/01/31 03:45:11;;;;;;;3.05;2.30;;;7.40;99.90;;;;;;5021744;28;20049;-79
2024/01/31 03:47:37;;;;;;;2.92;2.47;;;7.40;99.90;;;;;;5017349;28;20033;-78
2024/01/31 03:50:04;;;;;;;2.97;2.33;;;7.30;99.90;;;;;;5022535;28;20151;-78
2024/01/31 03:52:30;;;;;;;3.30;2.13;;;7.30;99.90;;;;;;5014053;28;20057;-78
2024/01/31 03:54:56;;;;;;;2.63;2.15;;;7.30;99.90;;;;;;5019600;28;20498;-78
2024/01/31 03:57:21;;;;;;;6.57;2.53;;;7.30;99.90;;;;;;5021249;28;20121;-78
2024/01/31 03:59:48;;;;;;;2.92;2.30;;;7.30;99.90;;;;;;5019876;28;20021;-78
2024/01/31 04:02:15;;;;;;;4.22;2.28;;;7.20;99.90;;;;;;5021812;28;20265;-80
2024/01/31 04:04:40;;;;;;;3.25;2.92;;;7.20;99.90;;;;;;5018681;28;20034;-83
2024/01/31 04:07:06;;;;;;;4.20;2.67;;;7.10;99.90;;;;;;5015705;28;20132;-78
2024/01/31 04:09:31;;;;;;;5.03;3.00;;;7.10;99.90;;;;;;5002466;28;20390;-79
2024/01/31 04:11:58;;;;;;;3.42;2.67;;;7.10;99.90;;;;;;5014682;28;21756;-78
2024/01/31 04:14:24;;;;;;;5.82;2.65;;;7.00;99.90;;;;;;5022274;28;20026;-78
2024/01/31 04:16:50;;;;;;;7.75;2.90;;;7.00;99.90;;;;;;5015307;28;20025;-78
2024/01/31 04:19:15;;;;;;;3.55;2.00;;;7.00;99.90;;;;;;5018101;28;20493;-78
2024/01/31 04:21:41;;;;;;;6.32;2.55;;;6.90;99.90;;;;;;5001659;28;20013;-79
2024/01/31 04:24:07;;;;;;;1.60;1.50;;;7.00;99.90;;;;;;5015840;28;20026;-79
2024/01/31 04:26:33;;;;;;;4.53;1.35;;;7.00;99.90;;;;;;5019010;28;20048;-78
2024/01/31 04:28:58;;;;;;;2.88;1.23;;;7.10;99.90;;;;;;5014879;28;20026;-78
2024/01/31 04:31:24;;;;;;;1.40;1.30;;;7.10;99.90;;;;;;5019235;28;20137;-78
2024/01/31 04:33:49;;;;;;;1.10;1.08;;;7.00;99.90;;;;;;5017491;28;20068;-78
2024/01/31 04:36:15;;;;;;;1.60;1.30;;;7.00;99.90;;;;;;5020779;28;20036;-78
2024/01/31 04:38:41;;;;;;;1.80;1.70;;;7.00;99.90;;;;;;5002963;28;20036;-79
2024/01/31 04:41:07;;;;;;;2.65;1.60;;;7.00;99.90;;;;;;5015612;28;20501;-78
2024/01/31 04:43:32;;;;;;;6.13;1.90;;;7.00;99.90;;;;;;5019905;28;20037;-78
2024/01/31 04:45:58;;;;;;;8.10;3.88;;;7.00;99.90;;;;;;5001263;28;20089;-79
2024/01/31 04:48:23;;;;;;;4.38;1.88;;;6.90;99.90;;;;;;5020040;28;20379;-79
2024/01/31 04:50:50;;;;;;;3.15;1.35;;;6.80;99.90;;;;;;5013229;28;20498;-79
2024/01/31 04:53:16;;;;;;;2.53;1.60;;;6.80;99.90;;;;;;5016789;28;20052;-79
2024/01/31 04:55:44;;;;;;;2.25;1.63;;;6.80;99.90;;;;;;5019092;28;20116;-79
2024/01/31 04:58:09;;;;;;;2.97;1.88;;;6.80;99.90;;;;;;5019276;28;20090;-79
2024/01/31 05:00:36;;;;;;;3.20;1.77;;;6.80;99.90;;;;;;5019292;28;20294;-79
2024/01/31 05:03:01;;;;;;;1.77;1.60;;;6.80;99.90;;;;;;5016415;28;20038;-79
2024/01/31 05:05:27;;;;;;;1.60;1.50;;;6.70;99.90;;;;;;5016236;28;20501;-79
2024/01/31 05:07:52;;;;;;;2.75;1.77;;;6.70;99.90;;;;;;5003394;28;20045;-79
2024/01/31 05:10:20;;;;;;;2.05;1.52;;;6.70;99.90;;;;;;5012212;28;20025;-79
2024/01/31 05:12:45;;;;;;;1.75;1.65;;;6.70;99.90;;;;;;5018857;28;20029;-79
2024/01/31 05:15:11;;;;;;;2.00;1.38;;;6.70;99.90;;;;;;4998419;28;20540;-79
2024/01/31 05:17:37;;;;;;;2.47;1.17;;;6.80;99.90;;;;;;5015182;28;20056;-79
2024/01/31 05:20:03;;;;;;;3.25;1.42;;;6.80;99.90;;;;;;5018831;28;20040;-79
2024/01/31 05:22:28;;;;;;;1.33;1.23;;;6.80;99.90;;;;;;5019433;28;20232;-79
2024/01/31 05:24:54;;;;;;;1.27;0.90;;;6.80;99.90;;;;;;5016941;28;20030;-79
2024/01/31 05:27:19;;;;;;;2.25;1.30;;;6.80;99.90;;;;;;4997771;28;20037;-79
2024/01/31 05:29:45;;;;;;;2.20;1.20;;;6.80;99.90;;;;;;5011888;28;20033;-81
2024/01/31 05:32:10;;;;;;;3.15;1.40;;;6.90;99.90;;;;;;5013455;28;20029;-79
2024/01/31 05:34:36;;;;;;;1.10;1.00;;;6.80;99.90;;;;;;5016645;28;20109;-79
2024/01/31 05:37:01;;;;;;;1.75;1.38;;;6.70;99.90;;;;;;5017791;28;20390;-80
2024/01/31 05:39:27;;;;;;;1.90;1.20;;;6.70;99.90;;;;;;5017720;28;20121;-79
2024/01/31 05:41:52;;;;;;;3.15;1.38;;;6.70;99.90;;;;;;5015767;28;20025;-79
2024/01/31 05:44:18;;;;;;;3.08;1.27;;;6.60;99.90;;;;;;5010564;28;20025;-79
2024/01/31 05:46:45;;;;;;;4.10;1.50;;;6.60;99.90;;;;;;5014904;28;20069;-79
2024/01/31 05:49:10;;;;;;;4.45;1.85;;;6.60;99.90;;;;;;5015954;28;20040;-79
2024/01/31 05:51:36;;;;;;;3.65;1.67;;;6.50;99.90;;;;;;5021635;28;20467;-79
2024/01/31 05:54:01;;;;;;;2.50;1.90;;;6.50;99.90;;;;;;5017015;28;20018;-79
2024/01/31 05:56:27;;;;;;;2.55;1.52;;;6.50;99.90;;;;;;5011518;28;20040;-78
2024/01/31 05:58:53;;;;;;;1.77;1.63;;;6.40;99.90;;;;;;5013466;28;20401;-79
2024/01/31 06:01:19;;;;;;;2.33;1.85;;;6.40;99.90;;;;;;5018023;28;20033;-78
2024/01/31 06:03:45;;;;;;;1.75;1.65;;;6.40;99.90;;;;;;5019817;28;21168;-79
2024/01/31 06:06:10;;;;;;;2.25;1.63;;;6.40;99.90;;;;;;5020553;28;20042;-79
2024/01/31 06:08:36;;;;;;;3.65;1.60;;;6.30;99.90;;;;;;5015923;28;20493;-79
2024/01/31 06:11:04;;;;;;;6.22;2.20;;;6.30;99.90;;;;;;5013384;28;20493;-78
2024/01/31 06:13:30;;;;;;;3.42;2.13;;;6.30;99.90;;;;;;5018078;28;20108;-79
2024/01/31 06:15:56;;;;;;;7.03;1.98;;;6.20;99.90;;;;;;5019655;28;20113;-79
2024/01/31 06:18:22;;;;;;;3.15;2.00;;;6.20;99.90;;;;;;5017375;28;20103;-79
2024/01/31 06:20:49;;;;;;;5.50;2.30;;;6.20;99.90;;;;;;5018570;28;20033;-78
2024/01/31 06:23:14;;;;;;;2.30;2.10;;;6.20;99.90;;;;;;5015309;28;20171;-78
2024/01/31 06:25:40;;;;;;;3.40;2.15;;;6.20;99.90;;;;;;5013739;28;20109;-79
2024/01/31 06:28:06;;;;;;;8.43;2.83;;;6.20;99.90;;;;;;5001425;28;20433;-79
2024/01/31 06:30:40;;;;;;;5.13;2.58;;;6.10;99.90;;;;;;5017930;28;20030;-79
2024/01/31 06:33:07;;;;;;;5.32;2.75;;;6.20;99.90;;;;;;5023323;28;20063;-80
2024/01/31 06:35:36;;;;;;;6.47;3.22;;;6.20;99.90;;;;;;5015380;28;20033;-78
2024/01/31 06:38:03;;;;;;;5.15;3.08;;;6.10;99.90;;;;;;4999432;28;20056;-79
2024/01/31 06:40:30;;;;;;;6.07;3.15;;;6.00;99.90;;;;;;5015010;28;20017;-79
2024/01/31 06:42:56;;;;;;;3.20;2.70;;;6.00;99.90;;;;;;5014417;28;20119;-79
2024/01/31 06:45:24;;;;;;;5.32;2.75;;;5.90;99.90;;;;;;5019685;28;20100;-86
2024/01/31 06:47:50;;;;;;;6.05;2.90;;;5.90;99.90;;;;;;5015925;28;20087;-79
2024/01/31 06:50:16;;;;;;;5.07;2.42;;;5.90;99.90;;;;;;5017917;28;20437;-79
2024/01/31 06:52:41;;;;;;;8.70;3.35;;;5.80;99.90;;;;;;5021348;28;20029;-79
2024/01/31 06:55:08;;;;;;;6.47;3.08;;;5.80;99.90;;;;;;5021111;28;20037;-80
2024/01/31 06:57:34;;;;;;;7.65;2.40;;;5.80;99.90;;;;;;5015695;28;20035;-79
2024/01/31 07:00:02;;;;;;;3.88;2.08;;;5.80;99.90;;;;;;5019628;28;20026;-79
2024/01/31 07:02:28;;;;;;;7.80;2.47;;;5.80;99.90;;;;;;5019149;28;20065;-79
2024/01/31 07:04:53;;;;;;;9.35;2.60;;;5.80;99.90;;;;;;5022363;28;20030;-79
2024/01/31 07:07:19;;;;;;;4.38;2.65;;;5.80;99.90;;;;;;5012771;28;20038;-80
2024/01/31 07:09:45;;;;;;;4.65;2.13;;;5.70;99.90;;;;;;5020038;28;20056;-79
2024/01/31 07:12:10;;;;;;;6.82;3.72;;;5.70;99.90;;;;;;5002358;28;20029;-79
2024/01/31 07:14:36;;;;;;;5.15;2.65;;;5.70;99.90;;;;;;5002412;28;20034;-79
2024/01/31 07:17:02;;;;;;;4.68;2.75;;;5.60;99.90;;;;;;5018332;28;20464;-80
2024/01/31 07:19:27;;;;;;;6.35;2.88;;;5.60;99.90;;;;;;5014358;28;20034;-80
2024/01/31 07:21:53;;;;;;;3.58;2.60;;;5.60;99.90;;;;;;5016779;28;20458;-79
2024/01/31 07:24:19;;;;;;;5.45;2.70;;;5.60;99.90;;;;;;4999493;28;20025;-80
2024/01/31 07:26:45;;;;;;;6.65;2.85;;;5.50;99.90;;;;;;5023015;28;20041;-80
2024/01/31 07:29:10;;;;;;;3.20;2.40;;;5.50;99.90;;;;;;5002750;28;20025;-79
2024/01/31 07:31:36;;;;;;;7.57;2.53;;;5.50;99.90;;;;;;5020312;28;20026;-79
2024/01/31 07:34:02;;;;;;;6.30;2.30;;;5.40;99.90;;;;;;5020593;28;20025;-79
2024/01/31 07:36:27;;;;;;;5.70;2.60;;;5.40;99.90;;;;;;4989562;28;20037;-79
2024/01/31 07:38:53;;;;;;;5.25;2.45;;;5.50;99.90;;;;;;5013591;28;20386;-79
2024/01/31 07:41:19;;;;;;;2.85;2.55;;;5.50;99.90;;;;;;5018988;28;20039;-79
2024/01/31 07:43:47;;;;;;;6.20;3.20;;;5.50;99.90;;;;;;5020176;28;20064;-79
2024/01/31 07:46:13;;;;;;;5.40;2.65;;;5.50;99.90;;;;;;5016122;28;20045;-79
2024/01/31 07:48:38;;;;;;;3.95;2.53;;;5.50;99.90;;;;;;5014141;28;20392;-79
2024/01/31 07:51:05;;;;;;;3.38;2.10;;;5.50;99.90;;;;;;4996925;28;20060;-79
2024/01/31 07:53:35;;;;;;;3.08;2.17;;;5.50;99.90;;;;;;5012513;28;20409;-79
2024/01/31 07:56:01;;;;;;;10.32;3.40;;;5.50;99.90;;;;;;5019441;28;20029;-79
2024/01/31 07:58:26;;;;;;;2.80;2.13;;;5.60;99.90;;;;;;5014211;28;20029;-79
2024/01/31 08:00:52;;;;;;;3.60;2.40;;;5.60;99.90;;;;;;5021151;28;20018;-81
2024/01/31 08:03:17;;;;;;;2.72;2.17;;;5.60;99.90;;;;;;5017202;28;20052;-78
2024/01/31 08:05:43;;;;;;;5.38;2.55;;;5.50;99.90;;;;;;5020593;28;20540;-79
2024/01/31 08:08:10;;;;;;;4.65;2.58;;;5.50;99.90;;;;;;5018535;28;20018;-78
2024/01/31 08:10:35;;;;;;;2.97;2.30;;;5.50;99.90;;;;;;5009058;28;20063;-78
2024/01/31 08:13:03;;;;;;;5.05;2.75;;;5.50;99.90;;;;;;5019459;28;20025;-79
2024/01/31 08:15:31;;;;;;;3.92;2.30;;;5.50;99.90;;;;;;5013483;28;20037;-78
2024/01/31 08:17:57;;;;;;;8.80;2.83;;;5.60;99.90;;;;;;5016296;28;20028;-79
2024/01/31 08:20:22;;;;;;;3.65;2.15;;;5.50;99.90;;;;;;5020302;28;20852;-78
2024/01/31 08:22:48;;;;;;;5.10;2.60;;;5.60;99.90;;;;;;5016079;28;20021;-79
2024/01/31 08:25:13;;;;;;;3.72;2.35;;;5.50;99.90;;;;;;5017310;28;20041;-78
2024/01/31 08:27:39;;;;;;;3.78;2.03;;;5.50;99.90;;;;;;5021546;28;20452;-78
2024/01/31 08:30:05;;;;;;;5.05;2.17;;;5.50;99.90;;;;;;5014405;28;20022;-78
2024/01/31 08:32:34;;;;;;;4.80;2.75;;;5.50;99.90;;;;;;5020884;28;20057;-78
2024/01/31 08:35:01;;;;;;;3.72;2.22;;;5.60;99.90;;;;;;5018493;28;20109;-78
2024/01/31 08:37:27;;;;;;;5.43;2.47;;;5.60;99.90;;;;;;4993952;28;20030;-79
2024/01/31 08:39:54;;;;;;;2.42;2.20;;;5.60;99.90;;;;;;5011973;28;20030;-79
2024/01/31 08:42:20;;;;;;;7.20;2.50;;;5.60;99.90;;;;;;4999712;28;20022;-79
2024/01/31 08:44:45;;;;;;;2.33;2.10;;;5.60;99.90;;;;;;5018552;28;20037;-78
2024/01/31 08:47:11;;;;;;;6.88;2.20;;;5.60;99.90;;;;;;4998914;28;20045;-78
2024/01/31 08:49:37;;;;;;;5.03;3.65;;;5.60;99.90;;;;;;5018778;28;20026;-78
2024/01/31 08:52:02;;;;;;;6.07;5.40;;;5.60;99.90;;;;;;5017335;28;20091;-79
2024/01/31 08:54:28;;;;;;;8.05;3.97;;;5.60;99.90;;;;;;5018720;28;20039;-78
2024/01/31 08:56:55;;;;;;;7.13;3.13;;;5.60;99.90;;;;;;5014384;28;20128;-78
2024/01/31 08:59:20;;;;;;;10.13;6.07;;;5.70;99.90;;;;;;5012209;28;20116;-79
2024/01/31 09:01:46;;;;;;;18.30;10.18;;;5.60;99.90;;;;;;5015311;28;20043;-78
2024/01/31 09:04:14;;;;;;;12.38;6.65;;;5.60;99.90;;;;;;4997875;28;20035;-78
2024/01/31 09:06:42;;;;;;;44.00;20.02;;;5.70;99.90;;;;;;5017241;28;20041;-79
2024/01/31 09:09:08;;;;;;;17.55;9.40;;;5.70;99.90;;;;;;5014667;28;20030;-79
2024/01/31 09:11:34;;;;;;;12.50;6.53;;;5.70;99.90;;;;;;5008336;28;20061;-78
2024/01/31 09:14:00;;;;;;;6.95;4.03;;;5.70;99.90;;;;;;5007583;28;20034;-78
2024/01/31 09:16:25;;;;;;;10.57;3.75;;;5.80;99.90;;;;;;5019702;28;20026;-78
2024/01/31 09:18:51;;;;;;;5.13;3.08;;;5.80;99.90;;;;;;5022954;28;20167;-78
2024/01/31 09:21:27;;;;;;;4.60;2.72;;;5.80;99.90;;;;;;5020740;28;20025;-79
2024/01/31 09:23:56;;;;;;;3.58;2.67;;;5.80;99.90;;;;;;5007992;28;20084;-79
2024/01/31 09:26:22;;;;;;;3.92;2.50;;;5.80;99.90;;;;;;5016850;28;20552;-79
2024/01/31 09:28:48;;;;;;;3.38;1.92;;;5.80;99.90;;;;;;4998287;28;20025;-79
2024/01/31 09:31:24;;;;;;;2.58;2.20;;;5.80;99.90;;;;;;5009872;28;20025;-79
2024/01/31 09:33:52;;;;;;;6.60;3.25;;;5.90;99.90;;;;;;5019750;28;20025;-78
2024/01/31 09:36:18;;;;;;;7.15;3.15;;;5.90;99.90;;;;;;5017352;28;20036;-79
2024/01/31 09:38:44;;;;;;;5.43;2.90;;;6.00;99.90;;;;;;5024822;28;20018;-78
2024/01/31 09:41:10;;;;;;;3.85;2.53;;;6.00;99.90;;;;;;5020227;28;20029;-79
2024/01/31 09:43:36;;;;;;;3.17;2.20;;;6.00;99.90;;;;;;5014959;28;20045;-79
2024/01/31 09:46:04;;;;;;;6.93;2.83;;;6.00;99.90;;;;;;5003016;28;20072;-79
2024/01/31 09:48:30;;;;;;;3.33;2.78;;;6.10;99.90;;;;;;5018732;28;20026;-79
2024/01/31 09:50:59;;;;;;;3.17;2.35;;;6.10;99.90;;;;;;5017347;28;20026;-79
2024/01/31 09:53:25;;;;;;;3.88;3.00;;;6.10;99.90;;;;;;5022321;28;20386;-79
2024/01/31 09:55:55;;;;;;;3.63;2.78;;;6.10;99.90;;;;;;5027496;28;20116;-79
2024/01/31 09:58:21;;;;;;;2.28;2.08;;;6.10;99.90;;;;;;5022527;28;20029;-79
2024/01/31 10:00:51;;;;;;;4.35;2.38;;;6.10;99.90;;;;;;5018630;28;20072;-79
2024/01/31 10:03:17;;;;;;;2.67;2.10;;;6.10;99.90;;;;;;5021111;28;20413;-79
2024/01/31 10:05:43;;;;;;;3.38;2.22;;;6.20;99.90;;;;;;5011753;28;20025;-79
2024/01/31 10:08:10;;;;;;;2.67;1.85;;;6.20;99.90;;;;;;5018612;28;20029;-81
2024/01/31 10:10:36;;;;;;;1.17;1.10;;;6.20;99.90;;;;;;5001739;28;20210;-82
2024/01/31 10:13:03;;;;;;;1.00;1.00;;;6.20;99.90;;;;;;5006052;28;20041;-80
2024/01/31 10:15:29;;;;;;;1.52;1.42;;;6.10;99.90;;;;;;4978567;28;20038;-81
2024/01/31 10:17:58;;;;;;;1.02;1.02;;;6.10;99.90;;;;;;4999120;28;20398;-81
2024/01/31 10:20:24;;;;;;;1.73;1.00;;;6.00;99.90;;;;;;5000179;28;20752;-81
2024/01/31 10:22:50;;;;;;;1.27;1.00;;;6.00;99.90;;;;;;5010365;28;20112;-81
2024/01/31 10:25:18;;;;;;;1.70;1.05;;;5.90;99.90;;;;;;5019563;28;20116;-84
2024/01/31 10:27:47;;;;;;;1.02;0.90;;;5.90;99.90;;;;;;5005776;28;20041;-80
2024/01/31 10:30:14;;;;;;;2.00;0.90;;;5.70;99.90;;;;;;4992043;28;20486;-80
2024/01/31 10:32:41;;;;;;;1.50;1.10;;;5.70;99.90;;;;;;5020421;28;20136;-80
2024/01/31 10:35:07;;;;;;;1.27;1.00;;;5.70;99.90;;;;;;5020974;28;20033;-83
2024/01/31 10:37:34;;;;;;;1.10;1.10;;;5.70;99.90;;;;;;5017273;28;20475;-81
2024/01/31 10:40:01;;;;;;;1.00;1.00;;;5.70;99.90;;;;;;5015564;28;20442;-80
2024/01/31 10:42:27;;;;;;;2.00;1.20;;;5.70;99.90;;;;;;5006136;28;20114;-83
2024/01/31 10:44:55;;;;;;;1.58;1.40;;;5.70;99.90;;;;;;5024746;28;20045;-80
2024/01/31 10:47:20;;;;;;;2.33;1.40;;;5.60;99.90;;;;;;5014619;28;20701;-81
2024/01/31 10:49:46;;;;;;;2.83;1.40;;;5.60;99.90;;;;;;5015101;28;20052;-81
2024/01/31 10:52:15;;;;;;;1.42;1.30;;;5.70;99.90;;;;;;5012104;28;20029;-82
2024/01/31 10:54:47;;;;;;;1.58;1.40;;;5.60;99.90;;;;;;5020140;28;20056;-83
2024/01/31 10:57:15;;;;;;;2.33;1.30;;;5.70;99.90;;;;;;5016020;28;20029;-83
2024/01/31 10:59:41;;;;;;;1.77;1.67;;;5.70;99.90;;;;;;5023448;28;20112;-86
2024/01/31 11:02:14;;;;;;;1.80;1.20;;;5.70;99.90;;;;;;5019768;28;20511;-82
2024/01/31 11:04:42;;;;;;;1.20;1.20;;;5.60;99.90;;;;;;5019773;28;20032;-81
2024/01/31 11:07:21;;;;;;;2.47;1.63;;;5.60;99.90;;;;;;5008946;28;20165;-84
2024/01/31 11:09:47;;;;;;;1.75;1.60;;;5.70;99.90;;;;;;5013378;28;20137;-80
2024/01/31 11:12:17;;;;;;;1.50;1.30;;;5.60;99.90;;;;;;5016639;28;20025;-83
2024/01/31 11:14:47;;;;;;;1.10;1.10;;;5.80;99.90;;;;;;5019365;28;20438;-81
2024/01/31 11:17:26;;;;;;;2.63;1.42;;;5.80;99.90;;;;;;5017312;28;20029;-83
2024/01/31 11:19:59;;;;;;;1.30;1.20;;;5.80;99.90;;;;;;5012543;28;20029;-81
2024/01/31 11:22:25;;;;;;;1.40;1.30;;;5.90;99.90;;;;;;5013861;28;20358;-83
2024/01/31 11:24:53;;;;;;;1.88;1.40;;;5.90;99.90;;;;;;5015083;28;20041;-80
2024/01/31 11:27:19;;;;;;;1.20;1.10;;;6.00;99.90;;;;;;5016632;28;20133;-81
2024/01/31 11:29:49;;;;;;;1.15;1.15;;;5.90;99.90;;;;;;5012738;28;20137;-80
2024/01/31 11:32:15;;;;;;;1.98;1.42;;;5.90;99.90;;;;;;5013798;28;20056;-78
2024/01/31 11:34:42;;;;;;;1.58;1.30;;;6.00;99.90;;;;;;5019837;28;20058;-79
2024/01/31 11:37:08;;;;;;;1.00;1.00;;;6.00;99.90;;;;;;5021903;28;20025;-78
2024/01/31 11:39:34;;;;;;;1.50;1.40;;;6.10;99.90;;;;;;5014030;28;20028;-79
2024/01/31 11:41:59;;;;;;;4.38;1.55;;;6.20;99.90;;;;;;5020887;28;20029;-78
2024/01/31 11:44:25;;;;;;;1.10;1.00;;;6.20;99.90;;;;;;5021909;28;20029;-77
2024/01/31 11:46:52;;;;;;;1.10;1.10;;;6.10;99.90;;;;;;5022144;28;20038;-79
2024/01/31 11:49:18;;;;;;;6.22;3.40;;;6.10;99.90;;;;;;5019593;28;20036;-79
2024/01/31 11:51:44;;;;;;;7.07;3.67;;;6.20;99.90;;;;;;5017330;28;20072;-80
2024/01/31 11:54:10;;;;;;;7.85;3.42;;;6.10;99.90;;;;;;5016038;28;20478;-80
2024/01/31 11:56:36;;;;;;;17.55;8.00;;;6.10;99.90;;;;;;5012785;28;20033;-78
2024/01/31 11:59:03;;;;;;;12.10;7.10;;;6.00;99.90;;;;;;5017248;28;20029;-77
2024/01/31 12:01:30;;;;;;;2.70;1.63;;;6.00;99.90;;;;;;5015666;28;20033;-81
2024/01/31 12:03:55;;;;;;;15.18;11.00;;;6.00;99.90;;;;;;5015314;28;20442;-82
2024/01/31 12:06:21;;;;;;;3.90;2.75;;;6.00;99.90;;;;;;5013349;28;20037;-81
2024/01/31 12:08:49;;;;;;;2.33;2.10;;;6.00;99.90;;;;;;5017768;28;20030;-81
2024/01/31 12:11:17;;;;;;;3.97;2.33;;;6.10;99.90;;;;;;5011101;28;20097;-88
2024/01/31 12:13:46;;;;;;;2.33;2.10;;;6.10;99.90;;;;;;4991694;28;20029;-83
2024/01/31 12:16:13;;;;;;;3.78;1.88;;;6.20;99.90;;;;;;5017705;28;20060;-83
2024/01/31 12:18:39;;;;;;;6.57;2.00;;;6.10;99.90;;;;;;5012154;28;20041;-81
2024/01/31 12:21:10;;;;;;;1.92;1.65;;;6.10;99.90;;;;;;5022335;28;20045;-81
2024/01/31 12:23:35;;;;;;;1.73;1.63;;;6.10;99.90;;;;;;5022400;28;20025;-80
2024/01/31 12:26:02;;;;;;;2.45;1.85;;;6.10;99.90;;;;;;5013276;28;20108;-81
2024/01/31 12:28:27;;;;;;;1.98;1.63;;;6.10;99.90;;;;;;5018507;28;20034;-81
2024/01/31 12:30:53;;;;;;;1.90;1.70;;;6.10;99.90;;;;;;5021944;28;20036;-81
2024/01/31 12:33:19;;;;;;;1.60;1.50;;;6.10;99.90;;;;;;5019064;28;20025;-81
2024/01/31 12:35:45;;;;;;;1.83;1.25;;;6.10;99.90;;;;;;5015538;28;20034;-80
2024/01/31 12:38:12;;;;;;;2.67;1.65;;;6.10;99.90;;;;;;5018897;28;20038;-80
2024/01/31 12:40:38;;;;;;;9.75;4.90;;;6.10;99.90;;;;;;5005289;28;20045;-81
2024/01/31 12:43:04;;;;;;;1.98;1.55;;;6.10;99.90;;;;;;5011959;28;20770;-84
2024/01/31 12:45:31;;;;;;;1.88;1.70;;;6.20;99.90;;;;;;5009435;28;20021;-81
2024/01/31 12:47:57;;;;;;;2.35;1.83;;;6.30;99.90;;;;;;5021718;28;20183;-86
2024/01/31 12:50:24;;;;;;;3.75;1.95;;;6.30;99.90;;;;;;5015565;28;20101;-81